Time;durP1;ratioP1;P1;durP2;ratioP2;P2;SDS_P1;SDS_P2;PMS_P1;PMS_P2;Temp;Humidity;BMP_temperature;BMP_pressure;BME280_temperature;BME280_humidity;BME280_pressure;Samples;Min_cycle;Max_cycle;Signal;HPM_P1;HPM_P2
2023/11/23 06:28:42;;;;;;;23.90;10.40;;;4.20;99.90;;;;;;6074380;23;20235;-70
2023/11/23 06:31:08;;;;;;;21.10;9.83;;;4.30;99.90;;;;;;4927820;29;20226;-70
2023/11/23 06:33:33;;;;;;;19.93;8.50;;;4.30;99.90;;;;;;4940268;29;20198;-70
2023/11/23 06:35:59;;;;;;;18.23;8.43;;;4.30;99.90;;;;;;4935083;29;20187;-70
2023/11/23 06:38:24;;;;;;;20.10;8.07;;;4.30;99.90;;;;;;4934677;29;20793;-70
2023/11/23 06:40:50;;;;;;;20.57;9.00;;;4.40;99.90;;;;;;4935359;29;20283;-70
2023/11/23 06:43:16;;;;;;;25.07;8.47;;;4.40;99.90;;;;;;4934922;29;20180;-70
2023/11/23 06:45:42;;;;;;;21.40;8.60;;;4.40;99.90;;;;;;4935213;29;20319;-70
2023/11/23 06:48:07;;;;;;;20.70;9.40;;;4.40;99.90;;;;;;4934505;29;20191;-70
2023/11/23 06:50:33;;;;;;;20.20;8.70;;;4.40;99.90;;;;;;4935276;29;20265;-70
2023/11/23 06:52:59;;;;;;;22.73;10.77;;;4.40;99.90;;;;;;4935075;29;20194;-70
2023/11/23 06:55:25;;;;;;;34.83;14.27;;;4.50;99.90;;;;;;4935153;29;20184;-70
2023/11/23 06:57:50;;;;;;;23.37;11.07;;;4.50;99.90;;;;;;4934313;29;20202;-70
2023/11/23 07:00:22;;;;;;;24.27;10.90;;;4.50;99.90;;;;;;4942686;29;20317;-70
2023/11/23 07:02:52;;;;;;;24.03;10.87;;;4.50;99.90;;;;;;4934966;29;20187;-70
2023/11/23 07:05:19;;;;;;;35.63;15.43;;;4.50;99.90;;;;;;4934925;29;20684;-70
2023/11/23 07:07:47;;;;;;;28.30;11.63;;;4.50;99.90;;;;;;4934329;29;20258;-70
2023/11/23 07:10:13;;;;;;;23.13;10.77;;;4.50;99.90;;;;;;4935204;29;20203;-70
2023/11/23 07:12:40;;;;;;;25.40;10.50;;;4.60;99.90;;;;;;4934705;29;20266;-70
2023/11/23 07:15:06;;;;;;;25.27;10.53;;;4.60;99.90;;;;;;4939152;29;20197;-70
2023/11/23 07:17:32;;;;;;;23.30;9.10;;;4.60;99.90;;;;;;4938337;29;20203;-70
2023/11/23 07:19:57;;;;;;;21.07;10.20;;;4.60;99.90;;;;;;4933898;29;20600;-70
2023/11/23 07:22:23;;;;;;;27.20;11.40;;;4.60;99.90;;;;;;4941262;29;20178;-70
2023/11/23 07:24:50;;;;;;;28.67;12.10;;;4.70;99.90;;;;;;4935785;29;20222;-70
2023/11/23 07:27:16;;;;;;;25.43;10.70;;;4.70;99.90;;;;;;4934714;29;20195;-70
2023/11/23 07:29:41;;;;;;;19.87;9.57;;;4.70;99.90;;;;;;4933181;29;20231;-70
2023/11/23 07:32:09;;;;;;;19.97;10.13;;;4.70;99.90;;;;;;4934716;29;20821;-70
2023/11/23 07:34:35;;;;;;;24.40;10.77;;;4.70;99.90;;;;;;4933696;29;20658;-71
2023/11/23 07:37:01;;;;;;;26.25;11.82;;;4.70;99.90;;;;;;4932238;29;20483;-70
2023/11/23 07:39:26;;;;;;;24.43;10.83;;;4.70;99.90;;;;;;4932802;29;20560;-70
2023/11/23 07:41:52;;;;;;;25.63;10.83;;;4.80;99.90;;;;;;4933309;29;20202;-70
2023/11/23 07:44:20;;;;;;;20.00;9.60;;;4.80;99.90;;;;;;4933820;29;20191;-70
2023/11/23 07:46:47;;;;;;;25.27;10.97;;;4.80;99.90;;;;;;4935052;29;20187;-69
2023/11/23 07:49:13;;;;;;;23.47;9.97;;;4.90;99.90;;;;;;4938956;29;20214;-70
2023/11/23 07:51:38;;;;;;;22.93;10.43;;;4.90;99.90;;;;;;4933655;29;20206;-69
2023/11/23 07:54:05;;;;;;;30.40;12.93;;;4.90;99.90;;;;;;4933414;29;20191;-70
2023/11/23 07:56:32;;;;;;;20.67;9.93;;;5.00;99.90;;;;;;4933628;29;20238;-70
2023/11/23 07:58:58;;;;;;;24.17;10.30;;;5.00;99.90;;;;;;4932366;29;20215;-68
2023/11/23 08:01:24;;;;;;;23.97;10.77;;;5.00;99.90;;;;;;4933477;29;20635;-71
2023/11/23 08:03:49;;;;;;;30.10;11.33;;;5.00;99.90;;;;;;4933355;29;20202;-69
2023/11/23 08:06:15;;;;;;;27.77;12.23;;;5.10;99.90;;;;;;4933448;29;20612;-70
2023/11/23 08:08:40;;;;;;;29.20;12.00;;;5.10;99.90;;;;;;4932628;29;20285;-72
2023/11/23 08:11:06;;;;;;;24.93;10.83;;;5.20;99.90;;;;;;4933315;29;20655;-68
2023/11/23 08:13:32;;;;;;;30.47;13.53;;;5.10;99.90;;;;;;4933358;29;20564;-69
2023/11/23 08:16:00;;;;;;;46.63;16.50;;;5.10;99.90;;;;;;4933141;29;20590;-69
2023/11/23 08:18:26;;;;;;;29.57;13.00;;;5.20;99.90;;;;;;4932314;29;20583;-69
2023/11/23 08:20:51;;;;;;;33.03;14.30;;;5.10;99.90;;;;;;4933379;29;20196;-69
2023/11/23 08:23:17;;;;;;;37.90;17.17;;;5.20;99.90;;;;;;4933565;29;20183;-70
2023/11/23 08:25:43;;;;;;;37.50;17.00;;;5.20;99.90;;;;;;4932801;29;20674;-69
2023/11/23 08:28:09;;;;;;;30.53;14.17;;;5.20;99.90;;;;;;4940338;29;20186;-70
2023/11/23 08:30:34;;;;;;;33.20;15.13;;;5.20;99.90;;;;;;4932960;29;20202;-69
2023/11/23 08:33:00;;;;;;;27.47;13.20;;;5.20;99.90;;;;;;4933130;29;20179;-69
2023/11/23 08:35:26;;;;;;;29.53;14.23;;;5.30;99.90;;;;;;4932978;29;21035;-70
2023/11/23 08:37:52;;;;;;;29.10;12.73;;;5.30;99.90;;;;;;4932053;29;20234;-72
2023/11/23 08:40:17;;;;;;;32.63;13.00;;;5.40;99.90;;;;;;4932670;29;20642;-70
2023/11/23 08:42:43;;;;;;;35.73;13.77;;;5.40;99.90;;;;;;4933042;29;20251;-69
2023/11/23 08:45:08;;;;;;;28.07;14.30;;;5.40;99.90;;;;;;4933016;29;20222;-69
2023/11/23 08:47:34;;;;;;;31.07;15.03;;;5.40;99.90;;;;;;4932848;29;20195;-69
2023/11/23 08:50:00;;;;;;;30.20;14.67;;;5.40;99.90;;;;;;4914935;29;20239;-69
2023/11/23 08:52:27;;;;;;;34.03;13.47;;;5.40;99.90;;;;;;4932743;29;20191;-70
2023/11/23 08:54:53;;;;;;;26.13;12.43;;;5.40;99.90;;;;;;4932557;29;20187;-70
2023/11/23 08:57:18;;;;;;;29.77;13.63;;;5.40;99.90;;;;;;4932596;29;20613;-69
2023/11/23 08:59:44;;;;;;;33.13;14.30;;;5.50;99.90;;;;;;4931819;29;20239;-70
2023/11/23 09:02:11;;;;;;;32.13;13.43;;;5.40;99.90;;;;;;4932558;29;20186;-69
2023/11/23 09:04:39;;;;;;;39.73;16.17;;;5.50;99.90;;;;;;4932521;29;20237;-69
2023/11/23 09:07:05;;;;;;;29.03;13.60;;;5.50;99.90;;;;;;4932629;29;20672;-69
2023/11/23 09:09:30;;;;;;;27.80;13.57;;;5.60;99.90;;;;;;4939044;29;20268;-69
2023/11/23 09:11:57;;;;;;;27.23;12.63;;;5.60;99.90;;;;;;4932802;29;20214;-70
2023/11/23 09:14:23;;;;;;;28.97;14.23;;;5.80;99.90;;;;;;4931619;29;20274;-69
2023/11/23 09:16:48;;;;;;;19.47;9.13;;;5.80;99.90;;;;;;4932400;29;20594;-69
2023/11/23 09:19:14;;;;;;;17.43;9.07;;;5.90;99.90;;;;;;4931839;29;20239;-69
2023/11/23 09:21:40;;;;;;;21.00;9.00;;;6.10;99.90;;;;;;4932540;29;20274;-69
2023/11/23 09:24:06;;;;;;;20.87;9.77;;;6.10;99.90;;;;;;4932607;29;20217;-69
2023/11/23 09:26:35;;;;;;;20.40;9.27;;;6.30;99.90;;;;;;4932595;29;20246;-69
2023/11/23 09:29:03;;;;;;;18.03;9.20;;;6.40;99.90;;;;;;4932012;29;20207;-70
2023/11/23 09:31:31;;;;;;;24.27;9.77;;;6.60;99.90;;;;;;4932395;29;20187;-69
2023/11/23 09:33:56;;;;;;;22.30;9.63;;;6.70;99.90;;;;;;4932399;29;20686;-71
2023/11/23 09:36:22;;;;;;;28.87;12.10;;;6.80;99.90;;;;;;4932463;29;20203;-70
2023/11/23 09:38:49;;;;;;;21.93;9.83;;;6.90;99.90;;;;;;4931824;29;20218;-69
2023/11/23 09:41:19;;;;;;;20.07;10.20;;;7.00;99.90;;;;;;4932484;29;20639;-69
2023/11/23 09:43:47;;;;;;;23.50;11.43;;;7.00;99.90;;;;;;4932339;29;20190;-70
2023/11/23 09:46:14;;;;;;;24.97;10.63;;;7.00;99.90;;;;;;4932502;29;20227;-69
2023/11/23 09:48:43;;;;;;;23.97;10.73;;;7.00;99.90;;;;;;4931542;29;20639;-69
2023/11/23 09:51:09;;;;;;;17.53;9.30;;;7.00;99.90;;;;;;4932376;29;20187;-70
2023/11/23 09:53:36;;;;;;;18.80;8.13;;;7.00;99.90;;;;;;4932415;29;20190;-70
2023/11/23 09:56:03;;;;;;;19.47;9.63;;;7.00;99.90;;;;;;4932359;29;20191;-69
2023/11/23 09:58:30;;;;;;;20.17;10.20;;;7.10;99.90;;;;;;4931666;29;20737;-69
2023/11/23 10:01:01;;;;;;;18.83;9.40;;;7.10;99.90;;;;;;4931422;29;20606;-69
2023/11/23 10:03:32;;;;;;;20.40;8.20;;;7.20;99.90;;;;;;4935716;29;20183;-71
2023/11/23 10:05:57;;;;;;;19.07;8.80;;;7.20;99.90;;;;;;4935603;29;20604;-70
2023/11/23 10:08:23;;;;;;;24.27;8.83;;;7.30;99.90;;;;;;4934923;29;20252;-72
2023/11/23 10:10:49;;;;;;;16.07;7.80;;;7.30;99.90;;;;;;4943383;29;20274;-70
2023/11/23 10:13:14;;;;;;;14.20;8.13;;;7.40;99.90;;;;;;4935452;29;20195;-72
2023/11/23 10:15:44;;;;;;;19.83;9.53;;;7.40;99.90;;;;;;4935820;29;20192;-71
2023/11/23 10:18:09;;;;;;;25.67;9.83;;;7.50;99.90;;;;;;4935352;29;20227;-71
2023/11/23 10:20:36;;;;;;;19.97;9.97;;;7.50;99.90;;;;;;4935510;29;20191;-70
2023/11/23 10:23:03;;;;;;;23.50;9.80;;;7.60;99.90;;;;;;4935448;29;20710;-71
2023/11/23 10:25:35;;;;;;;16.83;8.37;;;7.60;99.90;;;;;;4935475;29;20266;-71
2023/11/23 10:28:03;;;;;;;25.83;10.60;;;7.60;99.90;;;;;;4937750;29;20186;-70
2023/11/23 10:30:30;;;;;;;21.10;9.87;;;7.60;99.90;;;;;;4939997;28;20233;-70
2023/11/23 10:32:57;;;;;;;43.57;19.77;;;7.70;99.90;;;;;;4934789;29;20651;-71
2023/11/23 10:35:28;;;;;;;22.87;11.43;;;7.80;99.90;;;;;;4935048;29;20183;-71
2023/11/23 10:37:54;;;;;;;33.10;15.37;;;7.80;99.90;;;;;;4934295;29;20737;-71
2023/11/23 10:40:28;;;;;;;29.70;14.27;;;7.80;99.90;;;;;;4935079;29;20195;-70
2023/11/23 10:42:54;;;;;;;20.37;9.40;;;7.90;99.90;;;;;;4935019;29;20187;-70
2023/11/23 10:45:21;;;;;;;20.03;10.40;;;7.90;99.90;;;;;;4935131;29;20183;-70
2023/11/23 10:47:47;;;;;;;15.70;8.73;;;7.90;99.90;;;;;;4934481;29;20584;-70
2023/11/23 10:50:15;;;;;;;18.93;8.23;;;7.90;99.90;;;;;;4934856;29;20211;-70
2023/11/23 10:52:45;;;;;;;20.00;8.57;;;7.80;99.90;;;;;;4933581;29;20646;-70
2023/11/23 10:55:11;;;;;;;13.87;8.00;;;7.90;99.90;;;;;;4934994;29;20186;-70
2023/11/23 10:57:46;;;;;;;16.70;9.30;;;7.90;99.90;;;;;;4925541;29;20206;-70
2023/11/23 11:00:17;;;;;;;17.30;8.20;;;7.90;99.90;;;;;;4934665;29;20214;-70
2023/11/23 11:02:45;;;;;;;16.70;7.60;;;7.90;99.90;;;;;;4934625;29;20191;-72
2023/11/23 11:05:28;;;;;;;22.37;8.30;;;7.90;99.90;;;;;;4934761;29;20188;-70
2023/11/23 11:07:56;;;;;;;19.30;9.07;;;8.00;99.90;;;;;;4933733;29;20696;-70
2023/11/23 11:10:22;;;;;;;20.50;10.17;;;8.00;99.90;;;;;;4934525;29;20229;-73
2023/11/23 11:12:47;;;;;;;15.10;8.10;;;7.90;99.90;;;;;;4932886;29;20539;-70
2023/11/23 11:15:18;;;;;;;17.27;7.97;;;7.90;99.90;;;;;;4918543;29;20195;-70
2023/11/23 11:17:45;;;;;;;12.97;7.10;;;7.90;99.90;;;;;;4933778;29;20215;-70
2023/11/23 11:20:19;;;;;;;13.03;7.37;;;7.90;99.90;;;;;;4933901;29;20229;-70
2023/11/23 11:22:54;;;;;;;14.80;8.43;;;7.90;99.90;;;;;;4933953;29;20187;-71
2023/11/23 11:25:21;;;;;;;19.73;9.70;;;7.90;99.90;;;;;;4933885;29;20199;-73
2023/11/23 11:27:50;;;;;;;17.00;8.37;;;7.90;99.90;;;;;;4933534;29;20187;-70
2023/11/23 11:30:20;;;;;;;16.67;8.93;;;7.90;99.90;;;;;;4933740;29;20226;-73
2023/11/23 11:32:46;;;;;;;15.30;8.63;;;7.90;99.90;;;;;;4934141;29;20183;-70
2023/11/23 11:35:18;;;;;;;14.93;7.17;;;8.00;99.90;;;;;;4934066;29;20613;-70
2023/11/23 11:37:45;;;;;;;16.10;7.37;;;8.10;99.90;;;;;;4933429;29;20297;-73
2023/11/23 11:40:12;;;;;;;12.97;7.00;;;8.10;99.90;;;;;;4933919;29;20199;-70
2023/11/23 11:42:40;;;;;;;13.10;7.07;;;8.10;99.90;;;;;;4933860;29;20237;-70
2023/11/23 11:45:11;;;;;;;18.60;7.50;;;8.10;99.90;;;;;;4934163;29;20175;-70
2023/11/23 11:47:41;;;;;;;14.70;7.30;;;8.10;99.90;;;;;;4933759;29;20274;-71
2023/11/23 11:50:07;;;;;;;17.77;7.57;;;8.10;99.90;;;;;;4926061;29;20703;-70
2023/11/23 11:52:36;;;;;;;20.57;8.70;;;8.10;99.90;;;;;;4933750;29;20198;-72
2023/11/23 11:55:04;;;;;;;15.03;7.10;;;8.20;99.90;;;;;;4916636;29;20206;-73
2023/11/23 11:57:39;;;;;;;17.30;8.10;;;8.20;99.90;;;;;;4933957;29;20277;-69
2023/11/23 12:00:07;;;;;;;15.77;7.93;;;8.20;99.90;;;;;;4933012;29;20298;-69
2023/11/23 12:02:33;;;;;;;12.13;6.90;;;8.30;99.90;;;;;;4933715;29;20274;-73
2023/11/23 12:04:59;;;;;;;14.77;6.53;;;8.30;99.90;;;;;;4933333;29;20183;-68
2023/11/23 12:07:26;;;;;;;14.20;7.63;;;8.40;99.90;;;;;;4933360;29;20556;-71
2023/11/23 12:09:55;;;;;;;14.53;6.67;;;8.50;99.90;;;;;;4932802;29;20206;-72
2023/11/23 12:12:21;;;;;;;15.10;7.20;;;8.40;99.90;;;;;;4933548;29;20203;-72
2023/11/23 12:14:48;;;;;;;12.40;6.80;;;8.40;99.90;;;;;;4931355;29;20215;-72
2023/11/23 12:17:13;;;;;;;14.00;6.00;;;8.40;99.90;;;;;;4931405;29;20643;-71
2023/11/23 12:19:55;;;;;;;14.07;6.30;;;8.40;99.90;;;;;;4938698;29;20205;-71
2023/11/23 12:22:26;;;;;;;11.80;5.90;;;8.40;99.90;;;;;;4931445;29;20644;-71
2023/11/23 12:24:52;;;;;;;12.43;6.63;;;8.40;99.90;;;;;;4930863;29;20650;-71
2023/11/23 12:27:20;;;;;;;15.60;6.87;;;8.40;99.90;;;;;;4931952;29;20214;-71
2023/11/23 12:29:46;;;;;;;9.17;5.50;;;8.40;99.90;;;;;;4931687;29;20698;-70
2023/11/23 12:32:12;;;;;;;12.10;5.40;;;8.30;99.90;;;;;;4933224;29;20179;-70
2023/11/23 12:34:37;;;;;;;9.80;5.93;;;8.30;99.90;;;;;;4933190;29;20191;-72
2023/11/23 12:37:03;;;;;;;8.73;4.87;;;8.30;99.90;;;;;;4933508;29;20191;-72
2023/11/23 12:39:29;;;;;;;12.00;5.80;;;8.30;99.90;;;;;;4932256;29;20207;-72
2023/11/23 12:41:56;;;;;;;11.20;6.10;;;8.30;99.90;;;;;;4932935;29;20187;-71
2023/11/23 12:44:22;;;;;;;10.23;5.10;;;8.40;99.90;;;;;;4933161;29;20182;-72
2023/11/23 12:46:48;;;;;;;9.80;5.57;;;8.40;99.90;;;;;;4932964;29;20176;-72
2023/11/23 12:49:14;;;;;;;14.70;6.27;;;8.30;99.90;;;;;;4932531;29;20195;-71
2023/11/23 12:51:41;;;;;;;9.90;5.27;;;8.30;99.90;;;;;;4932720;29;20194;-71
2023/11/23 12:54:06;;;;;;;11.43;6.00;;;8.30;99.90;;;;;;4936764;29;20189;-71
2023/11/23 12:56:34;;;;;;;13.50;5.53;;;8.30;99.90;;;;;;4936971;29;20182;-72
2023/11/23 12:59:00;;;;;;;9.53;5.60;;;8.30;99.90;;;;;;4931923;29;20678;-71
2023/11/23 13:01:26;;;;;;;13.50;6.73;;;8.40;99.90;;;;;;4939031;29;20178;-71
2023/11/23 13:03:53;;;;;;;13.30;5.80;;;8.40;99.90;;;;;;4934219;29;20700;-71
2023/11/23 13:06:18;;;;;;;12.83;5.53;;;8.40;99.90;;;;;;4932990;29;20179;-71
2023/11/23 13:08:46;;;;;;;9.07;5.27;;;8.40;99.90;;;;;;4932014;29;20281;-71
2023/11/23 13:11:12;;;;;;;9.77;5.33;;;8.50;99.90;;;;;;4932844;29;20188;-71
2023/11/23 13:13:41;;;;;;;10.80;5.70;;;8.40;99.90;;;;;;4932641;29;20180;-72
2023/11/23 13:16:07;;;;;;;13.10;5.57;;;8.40;99.90;;;;;;4932339;29;20176;-71
2023/11/23 13:18:36;;;;;;;10.60;5.60;;;8.50;99.90;;;;;;4931817;29;20614;-72
2023/11/23 13:21:02;;;;;;;13.50;5.83;;;8.50;99.90;;;;;;4932608;29;20678;-72
2023/11/23 13:23:28;;;;;;;11.10;5.43;;;8.50;99.90;;;;;;4932640;29;20190;-71
2023/11/23 13:25:54;;;;;;;11.53;5.47;;;8.50;99.90;;;;;;4932955;29;20501;-71
2023/11/23 13:28:20;;;;;;;10.20;5.47;;;8.50;99.90;;;;;;4931938;29;20190;-71
2023/11/23 13:30:49;;;;;;;12.53;5.83;;;8.50;99.90;;;;;;4932242;29;20199;-71
2023/11/23 13:33:20;;;;;;;9.40;5.77;;;8.50;99.90;;;;;;4932553;29;20183;-71
2023/11/23 13:35:46;;;;;;;11.77;6.00;;;8.50;99.90;;;;;;4932669;29;20187;-71
2023/11/23 13:38:12;;;;;;;8.10;5.30;;;8.60;99.90;;;;;;4935726;29;20214;-71
2023/11/23 13:40:38;;;;;;;10.90;5.00;;;8.50;99.90;;;;;;4936332;29;20179;-71
2023/11/23 13:43:03;;;;;;;8.07;4.63;;;8.50;99.90;;;;;;4936024;29;20182;-71
2023/11/23 13:45:31;;;;;;;9.50;5.37;;;8.50;99.90;;;;;;4936134;29;20183;-71
2023/11/23 13:47:59;;;;;;;10.23;5.50;;;8.50;99.90;;;;;;4935465;29;20556;-71
2023/11/23 13:50:25;;;;;;;12.03;5.83;;;8.40;99.90;;;;;;4943627;29;20207;-71
2023/11/23 13:52:53;;;;;;;10.77;5.13;;;8.40;99.90;;;;;;4935998;29;20267;-71
2023/11/23 13:55:18;;;;;;;14.83;5.67;;;8.40;99.90;;;;;;4936054;29;20341;-71
2023/11/23 13:57:47;;;;;;;14.70;6.00;;;8.40;99.90;;;;;;4935216;29;20647;-71
2023/11/23 14:00:19;;;;;;;17.53;4.97;;;8.40;99.90;;;;;;4935793;29;20195;-70
2023/11/23 14:02:47;;;;;;;10.60;4.80;;;8.40;99.90;;;;;;4935683;29;20552;-70
2023/11/23 14:05:13;;;;;;;12.13;4.80;;;8.40;99.90;;;;;;4935845;29;20261;-70
2023/11/23 14:07:39;;;;;;;9.33;4.63;;;8.30;99.90;;;;;;4935633;29;20639;-70
2023/11/23 14:10:06;;;;;;;12.60;5.60;;;8.40;99.90;;;;;;4934886;29;20199;-70
2023/11/23 14:12:32;;;;;;;11.50;5.47;;;8.30;99.90;;;;;;4935475;29;20183;-71
2023/11/23 14:14:58;;;;;;;13.83;5.97;;;8.30;99.90;;;;;;4943184;29;20187;-71
2023/11/23 14:17:24;;;;;;;10.87;4.60;;;8.30;99.90;;;;;;4935682;29;20213;-71
2023/11/23 14:19:51;;;;;;;8.27;4.70;;;8.30;99.90;;;;;;4935248;29;20752;-71
2023/11/23 14:22:16;;;;;;;12.20;5.70;;;8.20;99.90;;;;;;4935898;29;20194;-71
2023/11/23 14:24:42;;;;;;;9.47;5.10;;;8.20;99.90;;;;;;4936001;29;20666;-71
2023/11/23 14:27:09;;;;;;;11.73;5.90;;;8.20;99.90;;;;;;4935848;29;20725;-71
2023/11/23 14:29:35;;;;;;;13.17;6.80;;;8.30;99.90;;;;;;4935180;29;20559;-71
2023/11/23 14:32:01;;;;;;;12.13;5.87;;;8.30;99.90;;;;;;4935586;29;20261;-71
2023/11/23 14:34:27;;;;;;;10.17;5.43;;;8.30;99.90;;;;;;4935746;29;20193;-70
2023/11/23 14:36:55;;;;;;;12.37;5.27;;;8.30;99.90;;;;;;4935553;29;20666;-70
2023/11/23 14:39:23;;;;;;;10.07;5.47;;;8.30;99.90;;;;;;4934785;29;20327;-70
2023/11/23 14:41:55;;;;;;;16.50;6.63;;;8.30;99.90;;;;;;4935483;29;20583;-70
2023/11/23 14:44:22;;;;;;;9.63;5.43;;;8.40;99.90;;;;;;4935528;29;20223;-70
2023/11/23 14:46:49;;;;;;;10.73;6.20;;;8.30;99.90;;;;;;4933763;29;20179;-70
2023/11/23 14:49:20;;;;;;;18.00;7.57;;;8.30;99.90;;;;;;4934894;29;20407;-71
2023/11/23 14:51:46;;;;;;;12.13;6.50;;;8.40;99.90;;;;;;4935105;29;20198;-71
2023/11/23 14:54:12;;;;;;;14.33;6.83;;;8.40;99.90;;;;;;4935459;29;20201;-70
2023/11/23 14:56:40;;;;;;;16.13;7.43;;;8.40;99.90;;;;;;4935413;29;20211;-71
2023/11/23 14:59:07;;;;;;;11.53;6.57;;;8.30;99.90;;;;;;4926801;29;20206;-70
2023/11/23 15:01:35;;;;;;;13.27;7.03;;;8.30;99.90;;;;;;4935406;29;20179;-70
2023/11/23 15:04:02;;;;;;;14.63;7.10;;;8.30;99.90;;;;;;4935226;29;20235;-70
2023/11/23 15:06:29;;;;;;;13.13;6.63;;;8.20;99.90;;;;;;4935122;29;20662;-71
2023/11/23 15:08:55;;;;;;;12.80;6.70;;;8.30;99.90;;;;;;4934145;29;20195;-71
2023/11/23 15:11:20;;;;;;;11.10;6.20;;;8.30;99.90;;;;;;4935070;29;20183;-71
2023/11/23 15:13:46;;;;;;;12.83;6.57;;;8.20;99.90;;;;;;4934836;29;20187;-70
2023/11/23 15:16:14;;;;;;;15.03;6.73;;;8.20;99.90;;;;;;4935043;29;20194;-71
2023/11/23 15:18:40;;;;;;;12.60;7.83;;;8.20;99.90;;;;;;4933848;29;20258;-70
2023/11/23 15:21:07;;;;;;;16.43;7.17;;;8.20;99.90;;;;;;4934888;29;20179;-71
2023/11/23 15:23:34;;;;;;;11.10;6.37;;;8.30;99.90;;;;;;4934801;29;20290;-71
2023/11/23 15:26:02;;;;;;;12.80;6.20;;;8.30;99.90;;;;;;4934604;29;20214;-71
2023/11/23 15:28:28;;;;;;;8.90;5.80;;;8.30;99.90;;;;;;4934177;29;20286;-71
2023/11/23 15:30:54;;;;;;;12.37;6.30;;;8.30;99.90;;;;;;4934271;29;20290;-72
2023/11/23 15:33:19;;;;;;;10.40;5.87;;;8.20;99.90;;;;;;4934615;29;20266;-71
2023/11/23 15:35:45;;;;;;;12.87;6.10;;;8.30;99.90;;;;;;4934479;29;20187;-71
2023/11/23 15:38:11;;;;;;;14.23;5.97;;;8.30;99.90;;;;;;4933938;29;20643;-71
2023/11/23 15:40:37;;;;;;;10.97;5.63;;;8.30;99.90;;;;;;4933381;29;20262;-71
2023/11/23 15:43:03;;;;;;;12.03;5.37;;;8.30;99.90;;;;;;4934555;29;20190;-71
2023/11/23 15:45:29;;;;;;;9.30;5.43;;;8.30;99.90;;;;;;4932942;29;20210;-71
2023/11/23 15:47:56;;;;;;;11.43;5.33;;;8.40;99.90;;;;;;4933684;29;20744;-71
2023/11/23 15:50:22;;;;;;;10.83;5.77;;;8.40;99.90;;;;;;4934218;29;20207;-70
2023/11/23 15:52:48;;;;;;;9.57;5.47;;;8.40;99.90;;;;;;4934074;29;20651;-71
2023/11/23 15:55:14;;;;;;;12.73;5.77;;;8.40;99.90;;;;;;4934375;29;20187;-71
2023/11/23 15:57:41;;;;;;;12.47;5.93;;;8.40;99.90;;;;;;4934506;29;20218;-71
2023/11/23 16:00:11;;;;;;;14.90;6.30;;;8.40;99.90;;;;;;4932894;29;20206;-71
2023/11/23 16:02:42;;;;;;;10.07;5.70;;;8.50;99.90;;;;;;4932334;29;20279;-71
2023/11/23 16:05:10;;;;;;;10.83;5.60;;;8.50;99.90;;;;;;4932545;29;20179;-71
2023/11/23 16:07:36;;;;;;;12.60;5.77;;;8.50;99.90;;;;;;4932230;29;20187;-71
2023/11/23 16:10:03;;;;;;;13.00;6.07;;;8.60;99.90;;;;;;4931398;29;20219;-71
2023/11/23 16:12:29;;;;;;;11.70;5.90;;;8.50;99.90;;;;;;4938822;29;20190;-70
2023/11/23 16:14:55;;;;;;;9.03;5.83;;;8.50;99.90;;;;;;4933870;29;20537;-71
2023/11/23 16:17:21;;;;;;;9.97;5.60;;;8.60;99.90;;;;;;4933625;29;20212;-70
2023/11/23 16:19:48;;;;;;;9.33;5.60;;;8.60;99.90;;;;;;4933032;29;20222;-71
2023/11/23 16:22:14;;;;;;;10.73;5.50;;;8.60;99.90;;;;;;4933845;29;20209;-70
2023/11/23 16:24:41;;;;;;;9.30;5.80;;;8.60;99.90;;;;;;4933663;29;20198;-71
2023/11/23 16:27:07;;;;;;;14.10;5.37;;;8.50;99.90;;;;;;4933700;29;20202;-71
2023/11/23 16:29:33;;;;;;;12.00;5.30;;;8.60;99.90;;;;;;4932968;29;20246;-71
2023/11/23 16:32:00;;;;;;;15.53;5.90;;;8.60;99.90;;;;;;4933252;29;20663;-71
2023/11/23 16:34:27;;;;;;;11.33;4.63;;;8.60;99.90;;;;;;4933620;29;20238;-71
2023/11/23 16:36:52;;;;;;;10.83;5.40;;;8.70;99.90;;;;;;4933432;29;20182;-71
2023/11/23 16:39:20;;;;;;;11.13;5.53;;;8.70;99.90;;;;;;4932885;29;20214;-71
2023/11/23 16:41:46;;;;;;;10.63;4.63;;;8.70;99.90;;;;;;4933373;29;20586;-70
2023/11/23 16:44:14;;;;;;;10.57;5.23;;;8.70;99.90;;;;;;4933481;29;20199;-71
2023/11/23 16:46:42;;;;;;;10.93;5.90;;;8.70;99.90;;;;;;4933475;29;20180;-70
2023/11/23 16:49:08;;;;;;;13.97;6.10;;;8.80;99.90;;;;;;4924950;29;20203;-71
2023/11/23 16:51:34;;;;;;;12.00;5.47;;;8.80;99.90;;;;;;4933247;29;20206;-71
2023/11/23 16:54:00;;;;;;;9.03;4.43;;;8.80;99.90;;;;;;4933236;29;20278;-70
2023/11/23 16:56:26;;;;;;;8.83;4.60;;;8.80;99.90;;;;;;4933452;29;20190;-70
2023/11/23 16:58:52;;;;;;;11.00;4.77;;;8.90;99.90;;;;;;4932269;29;20259;-70
2023/11/23 17:01:18;;;;;;;9.27;4.33;;;9.00;99.90;;;;;;4933307;29;20182;-70
2023/11/23 17:03:44;;;;;;;9.50;4.33;;;8.90;99.90;;;;;;4941105;29;20579;-70
2023/11/23 17:06:11;;;;;;;7.83;4.10;;;8.90;99.90;;;;;;4933124;29;20248;-70
2023/11/23 17:08:38;;;;;;;10.50;4.33;;;8.90;99.90;;;;;;4932335;29;20709;-70
2023/11/23 17:11:03;;;;;;;9.57;3.77;;;8.90;99.90;;;;;;4938247;29;20182;-70
2023/11/23 17:13:29;;;;;;;8.80;4.03;;;9.00;99.90;;;;;;4942118;29;20246;-70
2023/11/23 17:15:55;;;;;;;5.97;3.77;;;9.00;99.90;;;;;;4937106;29;20728;-70
2023/11/23 17:18:20;;;;;;;7.47;4.00;;;9.00;99.90;;;;;;4936119;29;20690;-70
2023/11/23 17:20:46;;;;;;;7.93;3.23;;;9.00;99.90;;;;;;4936819;29;20171;-70
2023/11/23 17:23:12;;;;;;;6.10;3.47;;;9.00;99.90;;;;;;4937004;29;20186;-70
2023/11/23 17:25:41;;;;;;;5.70;3.20;;;9.00;99.90;;;;;;4936936;29;20722;-70
2023/11/23 17:28:07;;;;;;;7.00;3.60;;;9.10;99.90;;;;;;4936144;29;20651;-70
2023/11/23 17:30:33;;;;;;;7.00;3.33;;;9.20;99.90;;;;;;4936629;29;20215;-71
2023/11/23 17:32:59;;;;;;;7.40;3.70;;;9.10;99.90;;;;;;4928749;29;20210;-71
2023/11/23 17:35:25;;;;;;;9.17;5.27;;;9.10;99.90;;;;;;4936775;29;20686;-71
2023/11/23 17:37:54;;;;;;;8.03;4.47;;;9.10;99.90;;;;;;4936050;29;20214;-70
2023/11/23 17:40:20;;;;;;;11.83;4.90;;;9.20;99.90;;;;;;4936570;29;20567;-70
2023/11/23 17:42:45;;;;;;;7.57;4.40;;;9.20;99.90;;;;;;4936540;29;20195;-70
2023/11/23 17:45:11;;;;;;;10.63;5.07;;;9.20;99.90;;;;;;4936767;29;20191;-70
2023/11/23 17:47:38;;;;;;;12.23;5.57;;;9.30;99.90;;;;;;4936044;29;20241;-70
2023/11/23 17:50:04;;;;;;;14.73;6.40;;;9.30;99.90;;;;;;4935569;29;20285;-70
2023/11/23 17:52:29;;;;;;;12.77;6.50;;;9.30;99.90;;;;;;4936520;29;20681;-71
2023/11/23 17:54:55;;;;;;;13.50;5.97;;;9.30;99.90;;;;;;4936281;29;20191;-71
2023/11/23 17:57:21;;;;;;;12.17;6.67;;;9.40;99.90;;;;;;4936410;29;20214;-70
2023/11/23 17:59:47;;;;;;;13.43;6.80;;;9.40;99.90;;;;;;4935353;29;20656;-71
2023/11/23 18:02:17;;;;;;;12.57;6.43;;;9.40;99.90;;;;;;4936188;29;20218;-71
2023/11/23 18:04:51;;;;;;;14.93;7.10;;;9.40;99.90;;;;;;4936131;29;20175;-71
2023/11/23 18:07:18;;;;;;;11.67;6.40;;;9.30;99.90;;;;;;4919075;29;20198;-71
2023/11/23 18:09:43;;;;;;;15.57;7.43;;;9.40;99.90;;;;;;4935239;29;20726;-70
2023/11/23 18:12:09;;;;;;;15.27;6.97;;;9.40;99.90;;;;;;4936250;29;20187;-70
2023/11/23 18:14:35;;;;;;;15.13;7.97;;;9.40;99.90;;;;;;4936113;29;20183;-70
2023/11/23 18:17:01;;;;;;;23.27;10.30;;;9.40;99.90;;;;;;4935416;29;20686;-70
2023/11/23 18:19:27;;;;;;;17.00;7.60;;;9.40;99.90;;;;;;4935357;29;20233;-70
2023/11/23 18:21:52;;;;;;;14.20;7.83;;;9.50;99.90;;;;;;4935263;29;20194;-70
2023/11/23 18:24:19;;;;;;;14.07;8.03;;;9.50;99.90;;;;;;4935582;29;20175;-70
2023/11/23 18:26:45;;;;;;;18.00;7.93;;;9.60;99.90;;;;;;4934272;29;20671;-70
2023/11/23 18:29:11;;;;;;;12.77;8.00;;;9.50;99.90;;;;;;4935190;29;20218;-70
2023/11/23 18:31:38;;;;;;;14.33;7.70;;;9.60;99.90;;;;;;4935744;29;20714;-70
2023/11/23 18:34:04;;;;;;;17.77;8.10;;;9.60;99.90;;;;;;4936062;29;20189;-70
2023/11/23 18:36:32;;;;;;;12.30;6.83;;;9.50;99.90;;;;;;4935663;29;20580;-70
2023/11/23 18:38:58;;;;;;;15.07;7.00;;;9.50;99.90;;;;;;4934576;29;20222;-70
2023/11/23 18:41:24;;;;;;;18.70;7.90;;;9.50;99.90;;;;;;4935560;29;20238;-70
2023/11/23 18:43:50;;;;;;;10.67;7.13;;;9.40;99.90;;;;;;4935561;29;20175;-70
2023/11/23 18:46:17;;;;;;;11.83;6.73;;;9.50;99.90;;;;;;4935464;29;20619;-70
2023/11/23 18:48:43;;;;;;;12.57;7.40;;;9.50;99.90;;;;;;4934825;29;20630;-70
2023/11/23 18:51:09;;;;;;;12.37;6.47;;;9.50;99.90;;;;;;4935536;29;20183;-70
2023/11/23 18:53:35;;;;;;;10.50;6.37;;;9.50;99.90;;;;;;4935222;29;20183;-70
2023/11/23 18:56:03;;;;;;;10.17;5.97;;;9.50;99.90;;;;;;4934775;29;20199;-70
2023/11/23 18:58:29;;;;;;;16.27;6.47;;;9.50;99.90;;;;;;4933183;29;20242;-70
2023/11/23 19:00:56;;;;;;;10.67;5.30;;;9.40;99.90;;;;;;4934789;29;20264;-70
2023/11/23 19:03:22;;;;;;;12.67;6.50;;;9.40;99.90;;;;;;4942720;29;20643;-70
2023/11/23 19:05:47;;;;;;;10.93;5.70;;;9.40;99.90;;;;;;4934768;29;20234;-70
2023/11/23 19:08:13;;;;;;;11.80;5.83;;;9.50;99.90;;;;;;4933957;29;20550;-71
2023/11/23 19:10:39;;;;;;;10.53;5.80;;;9.40;99.90;;;;;;4934713;29;20191;-70